Time;durP1;ratioP1;P1;durP2;ratioP2;P2;SDS_P1;SDS_P2;PMS_P1;PMS_P2;Temp;Humidity;BMP_temperature;BMP_pressure;BME280_temperature;BME280_humidity;BME280_pressure;Samples;Min_cycle;Max_cycle;Signal;HPM_P1;HPM_P2
2022/11/10 03:46:03;;;;;;;;;;;12.00;99.90;;;;;;5917203;23;93682;-71
2022/11/10 03:48:29;;;;;;;1.10;0.10;;;12.00;99.90;;;;;;4881257;28;92707;-72
2022/11/10 03:50:54;;;;;;;2.55;0.10;;;12.00;99.90;;;;;;4889739;28;91927;-72
2022/11/10 03:53:20;;;;;;;3.20;0.10;;;12.00;99.90;;;;;;4884000;28;91315;-73
2022/11/10 03:55:45;;;;;;;3.25;0.10;;;12.10;99.90;;;;;;4886749;28;91696;-72
2022/11/10 03:58:12;;;;;;;1.45;0.10;;;12.10;99.90;;;;;;4889582;28;91827;-72
2022/11/10 04:00:38;;;;;;;1.35;0.10;;;12.20;99.90;;;;;;4884573;28;93938;-71
2022/11/10 04:03:03;;;;;;;1.48;0.20;;;12.20;99.90;;;;;;4885719;28;92177;-72
2022/11/10 04:11:00;;;;;;;2.33;0.30;;;12.20;99.90;;;;;;4885511;28;92673;-72
2022/11/10 04:16:10;;;;;;;3.05;0.22;;;12.00;99.90;;;;;;4889824;28;91355;-73
2022/11/10 04:18:36;;;;;;;4.53;0.43;;;12.00;99.90;;;;;;4889783;28;91393;-73
2022/11/10 04:21:02;;;;;;;3.20;0.30;;;12.00;99.90;;;;;;4885849;28;93199;-73
2022/11/10 04:23:33;;;;;;;2.92;0.60;;;12.00;99.90;;;;;;4880824;28;92135;-73
2022/11/10 04:26:27;;;;;;;4.30;0.40;;;12.00;99.90;;;;;;4889489;28;92838;-73
2022/11/10 04:28:55;;;;;;;1.50;0.30;;;12.10;99.90;;;;;;4884459;28;91411;-73
2022/11/10 04:31:23;;;;;;;4.05;0.30;;;12.10;99.90;;;;;;4884874;28;92824;-72
2022/11/10 04:33:49;;;;;;;4.13;0.43;;;12.00;99.90;;;;;;4892882;28;91371;-72
2022/11/10 04:36:18;;;;;;;4.18;0.43;;;12.00;99.90;;;;;;4889209;28;92008;-71
2022/11/10 04:38:44;;;;;;;3.90;0.60;;;11.90;99.90;;;;;;4890606;28;91950;-72
2022/11/10 04:41:10;;;;;;;6.07;0.40;;;11.90;99.90;;;;;;4881777;28;93258;-72
2022/11/10 04:43:36;;;;;;;4.72;0.40;;;11.90;99.90;;;;;;4883749;28;92270;-72
2022/11/10 04:46:03;;;;;;;3.30;0.50;;;11.90;99.90;;;;;;4886052;28;92022;-72
2022/11/10 04:48:29;;;;;;;2.13;0.40;;;11.90;99.90;;;;;;4885047;28;91851;-72
2022/11/10 04:50:56;;;;;;;3.95;0.40;;;11.90;99.90;;;;;;4878614;28;92580;-73
2022/11/10 04:53:21;;;;;;;1.33;0.40;;;11.90;99.90;;;;;;4882042;28;93336;-73
2022/11/10 04:55:47;;;;;;;2.90;0.60;;;11.90;99.90;;;;;;4884159;28;92184;-72
2022/11/10 04:58:13;;;;;;;2.80;0.50;;;11.90;99.90;;;;;;4884515;28;92292;-72
2022/11/10 05:00:40;;;;;;;3.15;0.38;;;11.90;99.90;;;;;;4895608;28;92194;-73
2022/11/10 05:03:08;;;;;;;3.13;0.60;;;11.90;99.90;;;;;;4880045;28;91941;-72
2022/11/10 05:05:34;;;;;;;4.35;0.43;;;11.80;99.90;;;;;;4891641;28;91714;-73
2022/11/10 05:08:01;;;;;;;2.83;0.50;;;11.80;99.90;;;;;;4895687;28;91004;-73
2022/11/10 05:10:26;;;;;;;3.20;0.35;;;11.70;99.90;;;;;;4887123;28;92373;-73
2022/11/10 05:12:58;;;;;;;5.45;0.90;;;11.60;99.90;;;;;;4890362;28;92053;-73
2022/11/10 05:15:24;;;;;;;2.63;0.70;;;11.50;99.90;;;;;;4882791;28;92986;-73
2022/11/10 05:17:51;;;;;;;3.20;0.70;;;11.50;99.90;;;;;;4880710;28;91435;-73
2022/11/10 05:20:19;;;;;;;3.50;0.75;;;11.50;99.90;;;;;;4886770;28;92542;-73
2022/11/10 05:23:36;;;;;;;7.30;2.22;;;11.40;99.90;;;;;;4891807;28;91936;-74
2022/11/10 05:25:31;;;;;;;7.55;2.30;;;11.30;99.90;;;;;;4878569;28;91693;-73
2022/11/10 05:27:57;;;;;;;5.40;1.25;;;11.30;99.90;;;;;;4879672;28;92406;-72
2022/11/10 05:30:23;;;;;;;5.25;0.88;;;11.30;99.90;;;;;;4880084;28;92215;-72
2022/11/10 05:32:48;;;;;;;4.22;0.95;;;11.30;99.90;;;;;;4885324;28;92203;-72
2022/11/10 05:35:14;;;;;;;3.28;0.50;;;11.40;99.90;;;;;;4878222;28;91832;-73
2022/11/10 05:37:40;;;;;;;3.00;0.60;;;11.50;99.90;;;;;;4879509;28;91655;-73
2022/11/10 05:40:06;;;;;;;4.38;0.88;;;11.50;99.90;;;;;;4876125;28;93226;-72
2022/11/10 05:42:32;;;;;;;4.78;0.73;;;11.60;99.90;;;;;;4879372;28;92114;-73
2022/11/10 05:44:57;;;;;;;3.80;0.85;;;11.60;99.90;;;;;;4889574;28;91351;-73
2022/11/10 05:47:23;;;;;;;3.97;1.40;;;11.60;99.90;;;;;;4891292;28;92016;-72
2022/11/10 05:49:48;;;;;;;5.55;1.02;;;11.50;99.90;;;;;;4884098;28;92146;-73
2022/11/10 05:52:14;;;;;;;3.60;1.20;;;11.50;99.90;;;;;;4893009;28;91867;-73
2022/11/10 05:54:40;;;;;;;5.57;2.03;;;11.60;99.90;;;;;;4877604;28;92033;-72
2022/11/10 05:57:06;;;;;;;7.45;2.17;;;11.50;99.90;;;;;;4886955;28;91263;-72
2022/11/10 05:59:31;;;;;;;5.82;1.95;;;11.60;99.90;;;;;;4880201;28;92305;-73
2022/11/10 06:01:57;;;;;;;5.53;1.90;;;11.50;99.90;;;;;;4883200;28;91785;-73
2022/11/10 06:04:23;;;;;;;7.32;1.60;;;11.60;99.90;;;;;;4880183;28;92293;-73
2022/11/10 06:06:48;;;;;;;6.60;2.60;;;11.50;99.90;;;;;;4883928;28;91690;-73
2022/11/10 06:09:14;;;;;;;6.57;2.38;;;11.50;99.90;;;;;;4885474;28;91831;-73
2022/11/10 06:11:40;;;;;;;53.78;17.75;;;11.50;99.90;;;;;;4885716;28;91699;-73
2022/11/10 06:14:05;;;;;;;22.02;9.07;;;11.50;99.90;;;;;;4881527;28;91347;-73
2022/11/10 06:16:31;;;;;;;8.63;2.83;;;11.60;99.90;;;;;;4876908;28;92116;-73
2022/11/10 06:18:57;;;;;;;7.20;2.00;;;11.60;99.90;;;;;;4880588;28;91943;-74
2022/11/10 06:21:22;;;;;;;4.63;1.35;;;11.60;99.90;;;;;;4877790;28;92049;-72
2022/11/10 06:23:48;;;;;;;4.15;1.73;;;11.60;99.90;;;;;;4877724;28;91318;-73
2022/11/10 06:26:13;;;;;;;6.20;1.77;;;11.60;99.90;;;;;;4882398;28;91306;-73
2022/11/10 06:28:39;;;;;;;6.97;1.75;;;11.70;99.90;;;;;;4879498;28;93305;-73
2022/11/10 06:31:05;;;;;;;6.50;1.50;;;11.60;99.90;;;;;;4887013;28;93894;-72
2022/11/10 06:33:31;;;;;;;9.25;1.75;;;11.60;99.90;;;;;;4881059;28;91398;-73
2022/11/10 06:35:56;;;;;;;4.38;1.50;;;11.50;99.90;;;;;;4891196;28;92294;-73
2022/11/10 06:38:22;;;;;;;6.78;1.73;;;11.30;99.90;;;;;;4887554;28;92223;-73
2022/11/10 06:40:48;;;;;;;4.85;1.42;;;11.30;99.90;;;;;;4879506;28;93458;-73
2022/11/10 06:43:13;;;;;;;3.45;1.23;;;11.20;99.90;;;;;;4882782;28;91686;-72
2022/11/10 06:45:39;;;;;;;6.97;1.48;;;11.20;99.90;;;;;;4884021;28;91298;-72
2022/11/10 06:48:12;;;;;;;9.75;1.50;;;11.10;99.90;;;;;;4882517;28;91779;-73
2022/11/10 06:50:38;;;;;;;4.43;1.00;;;11.10;99.90;;;;;;4891353;28;92078;-73
2022/11/10 06:53:04;;;;;;;9.77;1.48;;;11.10;99.90;;;;;;4884184;28;93224;-73
2022/11/10 06:55:30;;;;;;;7.85;1.65;;;11.10;99.90;;;;;;4882227;28;92065;-73
2022/11/10 06:57:56;;;;;;;3.72;1.00;;;11.00;99.90;;;;;;4882245;28;91937;-72
2022/11/10 07:00:23;;;;;;;4.35;1.02;;;11.10;99.90;;;;;;4888660;28;92092;-73
2022/11/10 07:02:58;;;;;;;5.65;0.98;;;11.40;99.90;;;;;;4879486;28;91455;-72
2022/11/10 07:05:23;;;;;;;6.68;1.20;;;11.80;99.90;;;;;;4886589;28;91357;-73
2022/11/10 07:07:49;;;;;;;6.40;1.00;;;11.80;99.90;;;;;;4883730;28;93056;-73
2022/11/10 07:10:15;;;;;;;7.72;1.85;;;11.70;99.90;;;;;;4880592;28;91311;-73
2022/11/10 07:12:41;;;;;;;4.18;0.90;;;11.70;99.90;;;;;;4878251;28;91405;-73
2022/11/10 07:15:07;;;;;;;7.28;1.67;;;11.60;99.90;;;;;;4878468;28;91630;-73
2022/11/10 07:17:40;;;;;;;3.33;0.93;;;12.20;99.90;;;;;;4877066;28;92538;-73
2022/11/10 07:20:07;;;;;;;7.80;1.30;;;13.80;99.90;;;;;;4878259;28;92119;-73
2022/11/10 07:22:33;;;;;;;3.47;0.95;;;15.50;93.80;;;;;;4880717;28;91505;-73
2022/11/10 07:24:59;;;;;;;3.10;1.08;;;16.90;90.00;;;;;;4880648;28;91700;-73
2022/11/10 07:27:24;;;;;;;6.53;1.00;;;18.60;80.30;;;;;;4882053;28;91780;-74
2022/11/10 07:29:50;;;;;;;6.55;1.20;;;19.00;77.80;;;;;;4878086;28;91967;-73
2022/11/10 07:32:15;;;;;;;4.70;1.30;;;19.20;73.20;;;;;;4876516;28;91759;-74
2022/11/10 07:34:41;;;;;;;6.55;1.27;;;19.50;74.30;;;;;;4885367;28;91212;-73
2022/11/10 07:37:08;;;;;;;3.70;0.63;;;20.30;71.90;;;;;;4882713;28;92295;-73
2022/11/10 07:39:33;;;;;;;4.93;0.90;;;20.40;68.40;;;;;;4890807;28;92351;-73
2022/11/10 07:41:59;;;;;;;4.13;1.48;;;20.10;69.40;;;;;;4891379;28;92813;-72
2022/11/10 07:44:26;;;;;;;3.10;1.20;;;20.00;70.00;;;;;;4886708;28;92106;-73
2022/11/10 07:46:52;;;;;;;3.72;0.95;;;19.40;70.80;;;;;;4887805;28;92305;-72
2022/11/10 07:49:18;;;;;;;1.88;0.43;;;19.10;70.90;;;;;;4892083;28;91951;-73
2022/11/10 07:51:43;;;;;;;3.90;0.50;;;18.80;71.80;;;;;;4888584;28;92478;-72
2022/11/10 07:54:09;;;;;;;4.13;0.60;;;18.80;70.50;;;;;;4893259;28;92337;-72
2022/11/10 07:56:35;;;;;;;2.90;0.70;;;18.70;70.60;;;;;;4893191;28;92301;-72
2022/11/10 07:59:00;;;;;;;2.75;0.40;;;18.70;71.60;;;;;;4903709;28;91170;-73
2022/11/10 08:01:26;;;;;;;5.93;1.35;;;18.10;73.20;;;;;;4893276;28;91361;-72
2022/11/10 08:03:52;;;;;;;5.03;1.42;;;17.30;75.10;;;;;;4886362;28;91378;-72
2022/11/10 08:06:17;;;;;;;3.85;1.10;;;16.70;76.30;;;;;;4878880;28;92576;-72
2022/11/10 08:08:47;;;;;;;6.95;1.30;;;16.20;77.80;;;;;;4892834;28;92915;-72
2022/11/10 08:11:13;;;;;;;5.97;1.13;;;15.80;80.10;;;;;;4889117;28;92374;-72
2022/11/10 08:13:39;;;;;;;4.30;1.00;;;15.60;81.80;;;;;;4890870;28;91382;-72
2022/11/10 08:16:05;;;;;;;4.68;0.85;;;16.60;80.60;;;;;;4883280;28;91963;-73
2022/11/10 08:18:31;;;;;;;4.25;1.05;;;19.00;74.10;;;;;;4896227;28;91896;-73
2022/11/10 08:21:03;;;;;;;5.40;1.20;;;21.50;67.30;;;;;;4894168;28;92183;-73
2022/11/10 08:23:29;;;;;;;4.68;1.52;;;23.70;59.00;;;;;;4898089;28;90707;-74
2022/11/10 08:25:58;;;;;;;5.88;2.20;;;25.30;56.30;;;;;;4896213;28;92383;-71
2022/11/10 08:28:23;;;;;;;5.32;2.35;;;26.70;54.10;;;;;;4896999;28;91893;-73
2022/11/10 08:30:50;;;;;;;4.50;2.25;;;27.70;49.50;;;;;;4897162;28;92282;-74
2022/11/10 08:33:17;;;;;;;5.95;2.25;;;28.30;48.50;;;;;;4894067;28;91749;-74
2022/11/10 08:35:45;;;;;;;7.03;2.55;;;29.10;47.60;;;;;;4887197;28;93344;-73
2022/11/10 08:38:22;;;;;;;6.30;2.15;;;29.30;46.00;;;;;;4891154;28;92299;-74
2022/11/10 08:40:48;;;;;;;8.32;1.92;;;29.50;45.60;;;;;;4892085;28;91858;-73
2022/11/10 08:43:14;;;;;;;4.03;1.83;;;28.90;46.60;;;;;;4894133;28;91349;-73
2022/11/10 08:45:41;;;;;;;4.57;1.95;;;27.70;46.90;;;;;;4888479;28;91661;-74
2022/11/10 08:48:17;;;;;;;5.40;1.58;;;27.10;48.10;;;;;;4892066;28;91980;-73
2022/11/10 08:50:43;;;;;;;3.75;1.60;;;26.10;48.80;;;;;;4888247;28;91525;-73
2022/11/10 08:53:15;;;;;;;4.55;2.13;;;24.70;51.40;;;;;;4893974;28;91774;-73
2022/11/10 08:55:42;;;;;;;5.35;2.33;;;23.60;53.80;;;;;;4888095;28;92601;-73
2022/11/10 08:58:11;;;;;;;7.22;1.48;;;22.60;55.50;;;;;;4884452;28;92150;-72
2022/11/10 09:00:37;;;;;;;4.22;1.17;;;21.80;56.90;;;;;;4878018;28;91439;-72
2022/11/10 09:03:05;;;;;;;7.93;1.90;;;21.20;57.70;;;;;;4878653;28;92068;-72
2022/11/10 09:05:31;;;;;;;4.40;1.30;;;20.80;59.00;;;;;;4889163;28;91567;-72
2022/11/10 09:07:57;;;;;;;4.13;0.98;;;20.50;59.80;;;;;;4888027;28;91877;-72
2022/11/10 09:10:23;;;;;;;4.35;1.38;;;20.80;60.00;;;;;;4882833;28;92013;-72
2022/11/10 09:12:48;;;;;;;3.47;1.02;;;21.80;58.10;;;;;;4879655;28;91041;-72
2022/11/10 09:15:14;;;;;;;3.72;0.85;;;21.60;57.40;;;;;;4893319;28;92021;-72
2022/11/10 09:17:40;;;;;;;2.95;0.80;;;21.30;57.80;;;;;;4896005;28;92065;-72
2022/11/10 09:20:07;;;;;;;4.30;0.85;;;21.20;58.00;;;;;;4887302;28;93036;-72
2022/11/10 09:22:35;;;;;;;2.38;0.52;;;21.10;58.00;;;;;;4880371;28;91501;-72
2022/11/10 09:25:00;;;;;;;3.90;0.95;;;21.00;58.40;;;;;;4891413;28;91717;-72
2022/11/10 09:27:26;;;;;;;3.00;0.82;;;20.70;58.40;;;;;;4893700;28;91716;-72
2022/11/10 09:29:52;;;;;;;3.72;0.80;;;20.40;59.70;;;;;;4891517;28;91767;-72
2022/11/10 09:32:18;;;;;;;4.18;0.95;;;19.90;61.60;;;;;;4896275;28;91380;-72
2022/11/10 09:34:43;;;;;;;4.80;1.02;;;20.00;61.20;;;;;;4894060;28;92273;-72
2022/11/10 09:37:09;;;;;;;3.35;0.82;;;19.90;62.40;;;;;;4886348;28;91970;-72
2022/11/10 09:39:35;;;;;;;2.80;1.13;;;20.50;61.50;;;;;;4894081;28;92042;-73
2022/11/10 09:42:03;;;;;;;4.05;1.10;;;21.70;58.10;;;;;;4896854;28;92147;-72
2022/11/10 09:44:38;;;;;;;3.78;0.65;;;22.00;58.50;;;;;;4896552;28;92528;-72
2022/11/10 09:47:11;;;;;;;3.42;0.82;;;21.80;57.40;;;;;;4886213;28;92894;-72
2022/11/10 09:49:45;;;;;;;3.53;0.70;;;21.10;59.30;;;;;;4890556;28;93051;-72
2022/11/10 09:52:12;;;;;;;3.30;0.93;;;20.30;62.20;;;;;;4896844;28;91936;-72
2022/11/10 09:54:58;;;;;;;4.18;1.00;;;19.60;63.90;;;;;;4896399;28;92086;-72
2022/11/10 09:57:25;;;;;;;5.65;1.02;;;18.90;65.70;;;;;;4896145;28;92060;-72
2022/11/10 09:59:52;;;;;;;5.60;0.82;;;18.50;67.00;;;;;;4890939;28;92123;-72
2022/11/10 10:02:20;;;;;;;4.38;0.90;;;18.00;68.70;;;;;;4892850;28;91361;-71
2022/11/10 10:05:05;;;;;;;4.53;1.00;;;17.70;69.70;;;;;;4887245;28;92232;-72
2022/11/10 10:07:39;;;;;;;4.68;1.00;;;17.60;71.40;;;;;;4884923;28;92015;-72
2022/11/10 10:10:38;;;;;;;5.13;0.95;;;17.50;72.60;;;;;;4893799;28;92957;-72
2022/11/10 10:13:22;;;;;;;5.07;1.00;;;17.60;72.10;;;;;;4866636;28;91741;-72
2022/11/10 10:16:00;;;;;;;7.10;1.67;;;17.50;73.00;;;;;;4882420;28;92307;-72
2022/11/10 10:18:25;;;;;;;3.60;1.10;;;17.40;73.30;;;;;;4883284;28;91668;-71
2022/11/10 10:21:00;;;;;;;4.18;1.17;;;17.40;73.60;;;;;;4883063;28;91825;-71
2022/11/10 10:23:35;;;;;;;4.25;1.63;;;17.30;74.60;;;;;;4884942;28;91803;-72
2022/11/10 10:26:01;;;;;;;4.30;1.52;;;16.80;76.00;;;;;;4880956;28;92301;-71
2022/11/10 10:28:38;;;;;;;5.45;1.20;;;16.90;76.50;;;;;;4884607;28;91834;-72
2022/11/10 10:31:15;;;;;;;4.07;1.58;;;17.00;77.10;;;;;;4880510;28;91858;-72
2022/11/10 10:33:41;;;;;;;5.32;1.50;;;17.30;76.10;;;;;;4883087;28;91890;-71
2022/11/10 10:36:34;;;;;;;6.03;1.48;;;17.30;76.50;;;;;;4881867;28;93496;-72
2022/11/10 10:39:05;;;;;;;4.35;1.55;;;17.30;75.90;;;;;;4879933;28;92856;-72
2022/11/10 10:41:33;;;;;;;2.58;1.10;;;17.30;76.10;;;;;;4884186;28;91374;-71
2022/11/10 10:44:13;;;;;;;2.92;1.10;;;17.30;76.20;;;;;;4879244;28;91902;-72
2022/11/10 10:46:54;;;;;;;7.68;3.10;;;17.20;75.70;;;;;;4885335;28;92413;-71
2022/11/10 10:49:27;;;;;;;3.35;1.20;;;17.10;76.30;;;;;;4883169;28;92033;-72
2022/11/10 10:52:05;;;;;;;3.35;1.15;;;16.90;76.90;;;;;;4880039;28;91727;-72
2022/11/10 10:54:36;;;;;;;3.83;1.15;;;16.80;77.50;;;;;;4885340;28;91307;-72
2022/11/10 10:57:05;;;;;;;5.35;1.00;;;16.70;78.60;;;;;;4883723;28;92173;-72
2022/11/10 10:59:32;;;;;;;5.57;1.00;;;16.60;79.00;;;;;;4883185;28;91994;-71
2022/11/10 11:01:58;;;;;;;3.53;1.20;;;16.50;78.40;;;;;;4880368;28;92284;-72
2022/11/10 11:04:32;;;;;;;4.75;1.30;;;16.40;79.40;;;;;;4883300;28;91864;-71
2022/11/10 11:07:04;;;;;;;5.05;1.60;;;16.10;79.10;;;;;;4878360;28;92299;-71
2022/11/10 11:09:40;;;;;;;5.78;2.00;;;16.00;80.00;;;;;;4893703;28;92108;-71
2022/11/10 11:12:16;;;;;;;4.32;1.70;;;15.80;80.70;;;;;;4880691;28;91366;-72
2022/11/10 11:14:42;;;;;;;5.10;2.10;;;15.60;81.10;;;;;;4887097;28;91572;-72
2022/11/10 11:17:21;;;;;;;5.22;1.65;;;15.50;81.90;;;;;;4891842;28;92535;-72
2022/11/10 11:19:51;;;;;;;4.32;2.03;;;15.30;82.70;;;;;;4888642;28;91944;-72
2022/11/10 11:22:34;;;;;;;5.65;1.50;;;15.30;83.40;;;;;;4890649;28;91863;-72
2022/11/10 11:25:08;;;;;;;3.38;1.65;;;15.30;82.90;;;;;;4890119;28;91744;-73
2022/11/10 11:28:04;;;;;;;4.32;2.38;;;15.30;83.80;;;;;;4878238;28;94557;-73
2022/11/10 11:30:53;;;;;;;5.32;2.17;;;15.20;84.60;;;;;;4883319;28;92858;-73
2022/11/10 11:33:42;;;;;;;5.40;1.92;;;15.30;84.20;;;;;;4883110;28;92118;-73
2022/11/10 11:36:23;;;;;;;3.35;1.42;;;15.40;83.80;;;;;;4879078;28;91282;-72
2022/11/10 11:39:20;;;;;;;5.00;1.63;;;15.40;83.00;;;;;;4886524;28;93226;-73
2022/11/10 11:41:55;;;;;;;4.07;1.60;;;15.50;83.90;;;;;;4879215;28;94114;-72
2022/11/10 11:44:49;;;;;;;5.72;1.80;;;15.60;83.10;;;;;;4876396;28;91869;-73
2022/11/10 11:47:36;;;;;;;5.03;1.90;;;15.70;82.90;;;;;;4878743;28;91121;-71
2022/11/10 11:50:07;;;;;;;3.92;1.58;;;15.60;82.80;;;;;;4874168;28;92992;-71
2022/11/10 11:52:54;;;;;;;5.10;1.90;;;15.50;83.10;;;;;;4881839;28;91958;-73
2022/11/10 11:55:52;;;;;;;5.00;1.77;;;15.30;83.60;;;;;;4879788;28;92382;-73
2022/11/10 11:58:53;;;;;;;5.30;2.22;;;15.20;86.00;;;;;;4878771;28;92452;-70
2022/11/10 12:01:45;;;;;;;5.03;2.10;;;15.10;84.70;;;;;;4878644;28;92251;-73
2022/11/10 12:04:20;;;;;;;20.52;6.78;;;15.00;84.90;;;;;;4881186;28;93113;-73
2022/11/10 12:06:51;;;;;;;5.72;2.03;;;15.00;85.70;;;;;;4876721;28;91884;-71
2022/11/10 12:09:26;;;;;;;4.53;1.95;;;14.90;85.70;;;;;;4878003;28;91769;-73
2022/11/10 12:12:28;;;;;;;4.60;1.60;;;14.90;86.20;;;;;;4882093;28;92193;-73
2022/11/10 12:15:22;;;;;;;4.85;1.65;;;14.90;87.30;;;;;;4878261;28;91928;-73
2022/11/10 12:18:11;;;;;;;3.50;1.50;;;14.90;86.40;;;;;;4879216;28;91410;-73
2022/11/10 12:21:10;;;;;;;4.00;1.83;;;14.70;86.10;;;;;;4885734;28;92560;-73
2022/11/10 12:23:53;;;;;;;3.70;1.58;;;14.70;87.70;;;;;;4878787;28;92678;-73
2022/11/10 12:26:19;;;;;;;;;;;14.60;88.20;;;;;;4881693;28;92137;-73
2022/11/10 12:28:55;;;;;;;7.38;1.98;;;14.70;88.10;;;;;;4892662;28;91328;-72
2022/11/10 12:31:24;;;;;;;5.00;1.63;;;14.70;87.90;;;;;;4892514;28;91550;-73
2022/11/10 12:34:05;;;;;;;4.55;1.70;;;14.70;88.00;;;;;;4891862;28;92936;-73
2022/11/10 12:36:31;;;;;;;6.05;2.40;;;14.70;87.30;;;;;;4888279;28;91452;-73
2022/11/10 12:38:57;;;;;;;7.63;3.25;;;14.70;87.20;;;;;;4896744;28;93064;-72
2022/11/10 12:41:27;;;;;;;5.97;2.83;;;14.70;87.80;;;;;;4883921;28;91312;-72
2022/11/10 12:44:15;;;;;;;5.60;1.88;;;14.70;88.10;;;;;;4880046;28;92382;-73
2022/11/10 12:46:43;;;;;;;5.22;2.22;;;14.70;88.70;;;;;;4880931;28;91915;-72
2022/11/10 12:49:14;;;;;;;4.55;1.52;;;14.70;88.60;;;;;;4886292;28;93935;-72
2022/11/10 12:51:57;;;;;;;5.45;1.88;;;14.70;88.90;;;;;;4880004;28;91520;-71
2022/11/10 12:54:26;;;;;;;4.88;1.77;;;14.60;89.30;;;;;;4880020;28;94272;-72
2022/11/10 12:56:56;;;;;;;7.95;1.70;;;14.50;89.10;;;;;;4879645;28;92131;-71
2022/11/10 12:59:25;;;;;;;8.30;1.60;;;14.50;89.00;;;;;;4879979;28;91990;-71
2022/11/10 13:02:04;;;;;;;4.43;2.00;;;14.50;89.00;;;;;;4886953;28;91739;-71
2022/11/10 13:04:31;;;;;;;5.18;1.23;;;14.50;89.40;;;;;;4887236;28;92814;-72
2022/11/10 13:07:03;;;;;;;6.63;1.30;;;14.50;88.00;;;;;;4884128;28;93448;-73
2022/11/10 13:09:38;;;;;;;2.72;1.00;;;14.50;88.00;;;;;;4891257;28;91346;-72
2022/11/10 13:12:15;;;;;;;5.47;1.27;;;14.40;87.90;;;;;;4884233;28;91952;-73
2022/11/10 13:14:42;;;;;;;5.45;1.48;;;14.40;87.50;;;;;;4886498;28;93262;-73
2022/11/10 13:17:10;;;;;;;4.85;1.40;;;14.40;88.60;;;;;;4881963;28;92174;-73
2022/11/10 13:19:37;;;;;;;5.35;1.25;;;14.40;89.00;;;;;;4885791;28;91929;-73
2022/11/10 13:22:26;;;;;;;5.32;1.23;;;14.40;89.00;;;;;;4887239;28;91613;-73
2022/11/10 13:25:12;;;;;;;3.88;1.30;;;14.40;89.00;;;;;;4885076;28;92478;-73
2022/11/10 13:27:40;;;;;;;3.50;1.60;;;14.50;89.30;;;;;;4881398;28;92835;-73
2022/11/10 13:30:08;;;;;;;5.95;1.30;;;14.50;89.10;;;;;;4880370;28;91798;-73
2022/11/10 13:32:35;;;;;;;5.90;1.50;;;14.50;88.50;;;;;;4881553;28;90811;-73
2022/11/10 13:35:28;;;;;;;4.07;1.50;;;14.40;88.70;;;;;;4882936;28;92162;-73
2022/11/10 13:37:55;;;;;;;5.03;1.48;;;14.40;88.60;;;;;;4879620;28;91998;-73
2022/11/10 13:40:24;;;;;;;5.28;1.38;;;14.50;88.90;;;;;;4879583;28;92726;-73
2022/11/10 13:42:58;;;;;;;2.90;1.25;;;14.50;88.50;;;;;;4880566;28;91839;-73
2022/11/10 13:45:37;;;;;;;4.10;1.10;;;14.40;88.30;;;;;;4878648;28;92317;-73
2022/11/10 13:48:11;;;;;;;4.55;1.05;;;14.40;88.40;;;;;;4879729;28;91949;-73
2022/11/10 13:51:10;;;;;;;6.15;1.30;;;14.40;88.50;;;;;;4879533;28;91444;-73
2022/11/10 13:53:45;;;;;;;4.13;0.90;;;14.40;88.60;;;;;;4877273;28;91243;-72
2022/11/10 13:56:44;;;;;;;6.13;1.17;;;14.40;88.20;;;;;;4878929;28;92367;-73
2022/11/10 13:59:23;;;;;;;4.60;0.95;;;14.40;88.00;;;;;;4880656;28;91866;-72
2022/11/10 14:01:48;;;;;;;3.38;1.10;;;14.40;88.20;;;;;;4882232;28;91367;-72
2022/11/10 14:04:39;;;;;;;3.83;1.00;;;14.40;88.20;;;;;;4888148;28;93152;-72
2022/11/10 14:07:16;;;;;;;3.70;1.02;;;14.40;88.20;;;;;;4883671;28;92776;-73
2022/11/10 14:09:49;;;;;;;3.78;1.00;;;14.30;88.10;;;;;;4889874;28;92124;-73
2022/11/10 14:12:29;;;;;;;4.18;0.70;;;14.30;87.90;;;;;;4887563;28;91869;-73
2022/11/10 14:15:12;;;;;;;5.28;0.75;;;14.30;87.70;;;;;;4883522;28;92135;-73
2022/11/10 14:17:54;;;;;;;3.67;1.35;;;14.20;87.80;;;;;;4885797;28;92339;-73
2022/11/10 14:20:25;;;;;;;2.85;0.68;;;14.20;87.50;;;;;;4888864;28;91954;-73
2022/11/10 14:22:52;;;;;;;6.38;0.70;;;14.20;87.60;;;;;;4884302;28;91771;-73
2022/11/10 14:25:35;;;;;;;3.55;0.95;;;14.20;87.50;;;;;;4888584;28;91211;-73
2022/11/10 14:28:28;;;;;;;2.80;1.00;;;14.20;87.90;;;;;;4886424;28;92393;-72
2022/11/10 14:30:54;;;;;;;2.50;0.80;;;14.20;88.00;;;;;;4883521;28;91936;-73
2022/11/10 14:33:22;;;;;;;4.53;1.23;;;14.20;88.00;;;;;;4885181;28;94183;-73
2022/11/10 14:35:50;;;;;;;3.53;1.05;;;14.20;88.30;;;;;;4889196;28;92504;-73
2022/11/10 14:38:24;;;;;;;4.85;1.85;;;14.20;89.00;;;;;;4891272;28;92844;-73
2022/11/10 14:40:54;;;;;;;5.50;1.60;;;14.10;90.00;;;;;;4890286;28;92520;-72
2022/11/10 14:43:29;;;;;;;;;;;14.10;90.10;;;;;;4884989;28;91585;-73
2022/11/10 14:45:55;;;;;;;6.18;1.70;;;14.00;90.40;;;;;;4891808;28;91299;-73
2022/11/10 14:48:25;;;;;;;6.35;1.63;;;14.00;90.40;;;;;;4892800;28;92762;-73
2022/11/10 14:50:52;;;;;;;3.90;1.65;;;14.00;90.60;;;;;;4890372;28;91305;-72
2022/11/10 14:53:24;;;;;;;5.85;2.10;;;14.00;90.70;;;;;;4884834;28;91735;-73
2022/11/10 14:55:50;;;;;;;4.88;1.98;;;13.90;90.70;;;;;;4892070;28;91895;-73
2022/11/10 14:58:25;;;;;;;7.22;2.17;;;13.90;91.10;;;;;;4892987;28;93261;-73
2022/11/10 15:00:51;;;;;;;5.57;2.20;;;13.90;91.30;;;;;;4888097;28;92296;-72
2022/11/10 15:03:29;;;;;;;4.97;1.88;;;13.90;91.50;;;;;;4887313;28;93004;-72
2022/11/10 15:05:55;;;;;;;5.57;1.40;;;13.80;91.50;;;;;;4895582;28;92858;-73
2022/11/10 15:08:21;;;;;;;6.82;1.00;;;13.80;91.10;;;;;;4889712;28;91708;-72
2022/11/10 15:10:49;;;;;;;3.47;1.20;;;13.70;90.90;;;;;;4895345;28;91880;-73
2022/11/10 15:13:32;;;;;;;3.97;1.63;;;13.60;91.20;;;;;;4894907;28;91270;-72
2022/11/10 15:16:24;;;;;;;5.25;1.80;;;13.50;91.80;;;;;;4880392;28;90596;-73
2022/11/10 15:18:52;;;;;;;4.85;1.95;;;13.40;93.30;;;;;;4883537;28;92183;-73
2022/11/10 15:21:26;;;;;;;5.30;2.20;;;13.40;92.70;;;;;;4881267;28;92049;-73
2022/11/10 15:23:55;;;;;;;6.60;2.30;;;13.40;93.00;;;;;;4882982;28;92892;-72
2022/11/10 15:26:24;;;;;;;7.22;2.17;;;13.30;93.10;;;;;;4879060;28;91320;-72
2022/11/10 15:28:50;;;;;;;4.38;2.08;;;13.20;93.60;;;;;;4890737;28;91905;-73
2022/11/10 15:31:29;;;;;;;4.78;2.10;;;13.10;93.60;;;;;;4880840;28;92206;-72
2022/11/10 15:33:57;;;;;;;6.35;2.35;;;13.00;93.90;;;;;;4892214;28;91772;-72
2022/11/10 15:36:26;;;;;;;6.15;2.40;;;12.90;94.00;;;;;;4899199;28;92031;-72
2022/11/10 15:39:03;;;;;;;5.63;2.20;;;12.90;94.10;;;;;;4883361;28;92377;-73
2022/11/10 15:41:32;;;;;;;5.32;2.30;;;12.80;94.30;;;;;;4881309;28;91999;-73
2022/11/10 15:44:17;;;;;;;6.05;2.35;;;12.80;94.30;;;;;;4888275;28;91317;-72
2022/11/10 15:46:44;;;;;;;8.65;2.88;;;12.70;94.20;;;;;;4888922;28;91828;-72
2022/11/10 15:49:36;;;;;;;8.02;3.30;;;12.60;94.60;;;;;;4890551;28;93323;-72
2022/11/10 15:52:23;;;;;;;9.40;3.63;;;12.50;94.60;;;;;;4883151;28;92671;-72
2022/11/10 15:54:50;;;;;;;9.15;3.28;;;12.50;94.40;;;;;;4875595;28;92038;-72
2022/11/10 15:57:17;;;;;;;7.43;3.33;;;12.30;94.50;;;;;;4878924;28;92995;-72
2022/11/10 15:59:44;;;;;;;7.15;2.03;;;12.30;94.60;;;;;;4889129;28;92165;-72
2022/11/10 16:02:24;;;;;;;16.83;2.50;;;12.20;94.60;;;;;;4883943;28;92586;-72
2022/11/10 16:04:53;;;;;;;10.88;2.70;;;12.10;95.90;;;;;;4879232;28;91222;-73
2022/11/10 16:07:19;;;;;;;4.30;2.20;;;12.00;96.10;;;;;;4880781;28;90501;-73
2022/11/10 16:09:45;;;;;;;7.55;2.50;;;11.80;96.60;;;;;;4880855;28;91342;-72
2022/11/10 16:12:19;;;;;;;6.43;2.25;;;11.80;96.40;;;;;;4885630;28;92642;-72
2022/11/10 16:14:52;;;;;;;9.20;2.50;;;11.80;96.80;;;;;;4880449;28;92635;-73
2022/11/10 16:17:18;;;;;;;5.32;2.30;;;11.60;96.90;;;;;;4886516;28;91648;-73
2022/11/10 16:19:45;;;;;;;8.35;2.65;;;11.70;97.00;;;;;;4879432;28;92157;-73
2022/11/10 16:22:11;;;;;;;8.65;3.42;;;11.60;97.20;;;;;;4878759;28;93067;-72
2022/11/10 16:24:38;;;;;;;10.57;4.10;;;11.60;97.40;;;;;;4880270;28;92026;-72
2022/11/10 16:27:09;;;;;;;7.90;4.20;;;11.50;97.50;;;;;;4877902;28;91332;-72
2022/11/10 16:29:35;;;;;;;10.93;4.03;;;11.40;97.60;;;;;;4880412;28;92763;-72
2022/11/10 16:32:01;;;;;;;9.60;3.88;;;11.40;97.70;;;;;;4873307;28;91744;-72
2022/11/10 16:34:27;;;;;;;9.40;2.58;;;11.30;98.60;;;;;;4876317;28;91276;-72
2022/11/10 16:36:52;;;;;;;11.82;2.80;;;11.30;98.70;;;;;;4877417;28;91631;-72
2022/11/10 16:39:19;;;;;;;8.30;2.90;;;11.30;98.50;;;;;;4877209;28;92923;-71
2022/11/10 16:41:45;;;;;;;9.10;3.10;;;11.30;99.00;;;;;;4880404;28;92881;-73
2022/11/10 16:44:13;;;;;;;8.10;2.92;;;11.20;99.10;;;;;;4879550;28;91912;-71
2022/11/10 16:46:40;;;;;;;7.57;2.50;;;11.10;99.00;;;;;;4878951;28;91403;-70
2022/11/10 16:49:34;;;;;;;7.30;2.90;;;11.10;99.30;;;;;;4878430;28;92286;-72
2022/11/10 16:52:10;;;;;;;7.13;2.65;;;11.00;99.90;;;;;;4883775;28;92099;-71
2022/11/10 16:54:36;;;;;;;;;;;11.00;99.90;;;;;;4889700;28;92077;-72
2022/11/10 16:57:11;;;;;;;7.70;2.42;;;11.00;99.90;;;;;;4896486;28;91069;-71
2022/11/10 16:59:36;;;;;;;8.30;2.65;;;10.90;99.90;;;;;;4895543;28;91719;-72
2022/11/10 17:02:02;;;;;;;6.50;2.60;;;10.90;99.90;;;;;;4892020;28;92330;-71